sensor_id;sensor_type;location;lat;lon;timestamp;P1;durP1;ratioP1;P2;durP2;ratioP2
417;SDS011;49;48.530;9.200;2023-03-13T00:01:47;22.47;;;5.57;;
417;SDS011;49;48.530;9.200;2023-03-13T00:04:15;20.03;;;5.20;;
417;SDS011;49;48.530;9.200;2023-03-13T00:06:43;13.40;;;4.70;;
417;SDS011;49;48.530;9.200;2023-03-13T00:09:11;21.60;;;5.20;;
417;SDS011;49;48.530;9.200;2023-03-13T00:11:40;12.50;;;4.63;;
417;SDS011;49;48.530;9.200;2023-03-13T00:14:07;23.70;;;5.53;;
417;SDS011;49;48.530;9.200;2023-03-13T00:16:35;16.73;;;5.00;;
417;SDS011;49;48.530;9.200;2023-03-13T00:19:03;25.70;;;6.20;;
417;SDS011;49;48.530;9.200;2023-03-13T00:21:31;12.87;;;4.60;;
417;SDS011;49;48.530;9.200;2023-03-13T00:24:00;26.37;;;5.33;;
417;SDS011;49;48.530;9.200;2023-03-13T00:26:27;17.83;;;5.30;;
417;SDS011;49;48.530;9.200;2023-03-13T00:28:55;16.30;;;4.90;;
417;SDS011;49;48.530;9.200;2023-03-13T00:31:22;11.03;;;3.90;;
417;SDS011;49;48.530;9.200;2023-03-13T00:33:51;23.50;;;4.90;;
417;SDS011;49;48.530;9.200;2023-03-13T00:36:21;11.30;;;4.47;;
417;SDS011;49;48.530;9.200;2023-03-13T00:38:49;12.03;;;4.23;;
417;SDS011;49;48.530;9.200;2023-03-13T00:41:19;7.80;;;3.60;;
417;SDS011;49;48.530;9.200;2023-03-13T00:43:48;22.93;;;3.70;;
417;SDS011;49;48.530;9.200;2023-03-13T00:46:16;13.23;;;3.67;;
417;SDS011;49;48.530;9.200;2023-03-13T00:48:44;12.30;;;3.93;;
417;SDS011;49;48.530;9.200;2023-03-13T00:51:12;13.20;;;4.50;;
417;SDS011;49;48.530;9.200;2023-03-13T00:53:39;13.33;;;4.33;;
417;SDS011;49;48.530;9.200;2023-03-13T00:56:07;9.80;;;4.37;;
417;SDS011;49;48.530;9.200;2023-03-13T00:58:37;11.50;;;4.60;;
417;SDS011;49;48.530;9.200;2023-03-13T01:01:06;16.80;;;4.67;;
417;SDS011;49;48.530;9.200;2023-03-13T01:03:34;12.33;;;4.07;;
417;SDS011;49;48.530;9.200;2023-03-13T01:06:02;15.57;;;4.47;;
417;SDS011;49;48.530;9.200;2023-03-13T01:08:30;17.20;;;4.67;;
417;SDS011;49;48.530;9.200;2023-03-13T01:10:58;15.40;;;5.20;;
417;SDS011;49;48.530;9.200;2023-03-13T01:13:25;16.60;;;3.93;;
417;SDS011;49;48.530;9.200;2023-03-13T01:15:55;15.00;;;4.37;;
417;SDS011;49;48.530;9.200;2023-03-13T01:18:21;13.37;;;4.00;;
417;SDS011;49;48.530;9.200;2023-03-13T01:20:48;15.17;;;4.63;;
417;SDS011;49;48.530;9.200;2023-03-13T01:23:15;9.80;;;3.77;;
417;SDS011;49;48.530;9.200;2023-03-13T01:25:42;9.57;;;3.60;;
417;SDS011;49;48.530;9.200;2023-03-13T01:28:09;15.97;;;4.77;;
417;SDS011;49;48.530;9.200;2023-03-13T01:30:36;18.30;;;3.90;;
417;SDS011;49;48.530;9.200;2023-03-13T01:33:04;18.80;;;4.77;;
417;SDS011;49;48.530;9.200;2023-03-13T01:35:31;9.57;;;4.17;;
417;SDS011;49;48.530;9.200;2023-03-13T01:37:58;13.17;;;3.70;;
417;SDS011;49;48.530;9.200;2023-03-13T01:40:25;9.07;;;3.50;;
417;SDS011;49;48.530;9.200;2023-03-13T01:42:52;14.27;;;4.00;;
417;SDS011;49;48.530;9.200;2023-03-13T01:48:20;8.80;;;3.67;;
417;SDS011;49;48.530;9.200;2023-03-13T01:50:50;17.53;;;4.50;;
417;SDS011;49;48.530;9.200;2023-03-13T01:53:18;15.17;;;3.93;;
417;SDS011;49;48.530;9.200;2023-03-13T01:55:45;15.83;;;4.23;;
417;SDS011;49;48.530;9.200;2023-03-13T01:58:12;6.93;;;3.43;;
417;SDS011;49;48.530;9.200;2023-03-13T02:00:39;9.70;;;3.53;;
417;SDS011;49;48.530;9.200;2023-03-13T02:03:09;13.40;;;3.80;;
417;SDS011;49;48.530;9.200;2023-03-13T02:05:40;12.00;;;3.60;;
417;SDS011;49;48.530;9.200;2023-03-13T02:08:10;12.03;;;3.60;;
417;SDS011;49;48.530;9.200;2023-03-13T02:10:43;15.13;;;4.33;;
417;SDS011;49;48.530;9.200;2023-03-13T02:13:16;9.83;;;3.63;;
417;SDS011;49;48.530;9.200;2023-03-13T02:15:44;8.50;;;3.37;;
417;SDS011;49;48.530;9.200;2023-03-13T02:18:12;8.97;;;3.90;;
417;SDS011;49;48.530;9.200;2023-03-13T02:20:41;15.83;;;4.60;;
417;SDS011;49;48.530;9.200;2023-03-13T02:23:10;18.00;;;4.50;;
417;SDS011;49;48.530;9.200;2023-03-13T02:25:45;8.90;;;3.70;;
417;SDS011;49;48.530;9.200;2023-03-13T02:28:15;17.40;;;4.20;;
417;SDS011;49;48.530;9.200;2023-03-13T02:30:45;13.67;;;4.00;;
417;SDS011;49;48.530;9.200;2023-03-13T02:33:14;8.90;;;3.40;;
417;SDS011;49;48.530;9.200;2023-03-13T02:35:42;13.60;;;4.33;;
417;SDS011;49;48.530;9.200;2023-03-13T02:38:10;9.37;;;3.60;;
417;SDS011;49;48.530;9.200;2023-03-13T02:40:45;8.47;;;3.00;;
417;SDS011;49;48.530;9.200;2023-03-13T02:43:14;8.00;;;2.97;;
417;SDS011;49;48.530;9.200;2023-03-13T02:45:59;8.37;;;2.87;;
417;SDS011;49;48.530;9.200;2023-03-13T02:48:30;7.50;;;3.00;;
417;SDS011;49;48.530;9.200;2023-03-13T02:50:59;11.07;;;3.20;;
417;SDS011;49;48.530;9.200;2023-03-13T02:53:28;5.63;;;2.47;;
417;SDS011;49;48.530;9.200;2023-03-13T02:55:58;4.17;;;2.60;;
417;SDS011;49;48.530;9.200;2023-03-13T02:58:25;10.00;;;2.80;;
417;SDS011;49;48.530;9.200;2023-03-13T03:00:52;7.30;;;2.70;;
417;SDS011;49;48.530;9.200;2023-03-13T03:03:19;5.07;;;2.93;;
417;SDS011;49;48.530;9.200;2023-03-13T03:05:46;8.83;;;2.80;;
417;SDS011;49;48.530;9.200;2023-03-13T03:08:13;6.33;;;2.63;;
417;SDS011;49;48.530;9.200;2023-03-13T03:10:39;4.53;;;2.30;;
417;SDS011;49;48.530;9.200;2023-03-13T03:13:08;3.77;;;2.50;;
417;SDS011;49;48.530;9.200;2023-03-13T03:15:34;10.70;;;2.63;;
417;SDS011;49;48.530;9.200;2023-03-13T03:18:01;6.30;;;2.67;;
417;SDS011;49;48.530;9.200;2023-03-13T03:20:29;7.43;;;3.40;;
417;SDS011;49;48.530;9.200;2023-03-13T03:22:55;4.57;;;2.90;;
417;SDS011;49;48.530;9.200;2023-03-13T03:25:22;9.03;;;2.80;;
417;SDS011;49;48.530;9.200;2023-03-13T03:27:49;9.30;;;5.30;;
417;SDS011;49;48.530;9.200;2023-03-13T03:30:18;6.80;;;2.93;;
417;SDS011;49;48.530;9.200;2023-03-13T03:32:45;6.60;;;3.00;;
417;SDS011;49;48.530;9.200;2023-03-13T03:35:12;8.87;;;2.53;;
417;SDS011;49;48.530;9.200;2023-03-13T03:37:39;5.03;;;2.47;;
417;SDS011;49;48.530;9.200;2023-03-13T03:40:06;7.37;;;3.33;;
417;SDS011;49;48.530;9.200;2023-03-13T03:42:35;7.20;;;2.70;;
417;SDS011;49;48.530;9.200;2023-03-13T03:45:02;6.30;;;2.80;;
417;SDS011;49;48.530;9.200;2023-03-13T03:47:30;4.83;;;2.80;;
417;SDS011;49;48.530;9.200;2023-03-13T03:49:57;4.00;;;2.60;;
417;SDS011;49;48.530;9.200;2023-03-13T03:52:24;2.50;;;2.23;;
417;SDS011;49;48.530;9.200;2023-03-13T03:54:51;4.10;;;2.60;;
417;SDS011;49;48.530;9.200;2023-03-13T03:57:18;7.10;;;3.00;;
417;SDS011;49;48.530;9.200;2023-03-13T03:59:44;5.87;;;3.00;;
417;SDS011;49;48.530;9.200;2023-03-13T04:02:11;7.20;;;2.90;;
417;SDS011;49;48.530;9.200;2023-03-13T04:04:40;4.73;;;2.63;;
417;SDS011;49;48.530;9.200;2023-03-13T04:07:06;4.63;;;2.80;;
417;SDS011;49;48.530;9.200;2023-03-13T04:09:33;5.57;;;2.40;;
417;SDS011;49;48.530;9.200;2023-03-13T04:12:00;4.90;;;2.67;;
417;SDS011;49;48.530;9.200;2023-03-13T04:14:27;5.93;;;2.73;;
417;SDS011;49;48.530;9.200;2023-03-13T04:16:54;4.37;;;2.50;;
417;SDS011;49;48.530;9.200;2023-03-13T04:19:21;7.00;;;2.90;;
417;SDS011;49;48.530;9.200;2023-03-13T04:21:50;6.63;;;2.30;;
417;SDS011;49;48.530;9.200;2023-03-13T04:24:16;8.93;;;3.27;;
417;SDS011;49;48.530;9.200;2023-03-13T04:26:43;4.60;;;2.90;;
417;SDS011;49;48.530;9.200;2023-03-13T04:29:10;11.40;;;3.70;;
417;SDS011;49;48.530;9.200;2023-03-13T04:31:37;5.63;;;2.87;;
417;SDS011;49;48.530;9.200;2023-03-13T04:34:04;10.03;;;4.60;;
417;SDS011;49;48.530;9.200;2023-03-13T04:36:31;6.03;;;3.60;;
417;SDS011;49;48.530;9.200;2023-03-13T04:38:59;15.90;;;4.20;;
417;SDS011;49;48.530;9.200;2023-03-13T04:41:26;4.47;;;2.70;;
417;SDS011;49;48.530;9.200;2023-03-13T04:43:53;4.17;;;2.57;;
417;SDS011;49;48.530;9.200;2023-03-13T04:46:19;12.33;;;3.23;;
417;SDS011;49;48.530;9.200;2023-03-13T04:48:46;7.10;;;2.60;;
417;SDS011;49;48.530;9.200;2023-03-13T04:51:13;4.97;;;2.70;;
417;SDS011;49;48.530;9.200;2023-03-13T04:53:40;6.20;;;3.07;;
417;SDS011;49;48.530;9.200;2023-03-13T04:56:08;6.57;;;2.73;;
417;SDS011;49;48.530;9.200;2023-03-13T04:58:37;5.27;;;2.90;;
417;SDS011;49;48.530;9.200;2023-03-13T05:01:04;4.10;;;2.80;;
417;SDS011;49;48.530;9.200;2023-03-13T05:03:31;5.53;;;2.77;;
417;SDS011;49;48.530;9.200;2023-03-13T05:05:58;6.80;;;2.93;;
417;SDS011;49;48.530;9.200;2023-03-13T05:08:24;10.13;;;2.70;;
417;SDS011;49;48.530;9.200;2023-03-13T05:10:51;5.73;;;2.60;;
417;SDS011;49;48.530;9.200;2023-03-13T05:13:19;4.73;;;2.67;;
417;SDS011;49;48.530;9.200;2023-03-13T05:15:46;7.57;;;2.80;;
417;SDS011;49;48.530;9.200;2023-03-13T05:18:13;6.30;;;2.67;;
417;SDS011;49;48.530;9.200;2023-03-13T05:20:40;12.93;;;2.90;;
417;SDS011;49;48.530;9.200;2023-03-13T05:23:07;3.40;;;2.30;;
417;SDS011;49;48.530;9.200;2023-03-13T05:25:34;4.20;;;2.60;;
417;SDS011;49;48.530;9.200;2023-03-13T05:28:00;5.80;;;2.80;;
417;SDS011;49;48.530;9.200;2023-03-13T05:30:29;3.93;;;2.47;;
417;SDS011;49;48.530;9.200;2023-03-13T05:32:56;6.10;;;2.40;;
417;SDS011;49;48.530;9.200;2023-03-13T05:35:23;4.37;;;2.77;;
417;SDS011;49;48.530;9.200;2023-03-13T05:37:50;6.30;;;2.60;;
417;SDS011;49;48.530;9.200;2023-03-13T05:40:17;3.40;;;2.30;;
417;SDS011;49;48.530;9.200;2023-03-13T05:42:44;4.10;;;2.73;;
417;SDS011;49;48.530;9.200;2023-03-13T05:45:11;4.07;;;2.40;;
417;SDS011;49;48.530;9.200;2023-03-13T05:47:40;4.80;;;2.60;;
417;SDS011;49;48.530;9.200;2023-03-13T05:50:07;4.27;;;2.30;;
417;SDS011;49;48.530;9.200;2023-03-13T05:52:35;7.33;;;2.50;;
417;SDS011;49;48.530;9.200;2023-03-13T05:55:01;3.13;;;2.50;;
417;SDS011;49;48.530;9.200;2023-03-13T05:57:28;7.53;;;2.93;;
417;SDS011;49;48.530;9.200;2023-03-13T05:59:55;6.83;;;2.60;;
417;SDS011;49;48.530;9.200;2023-03-13T06:02:23;4.97;;;2.33;;
417;SDS011;49;48.530;9.200;2023-03-13T06:04:52;3.60;;;2.20;;
417;SDS011;49;48.530;9.200;2023-03-13T06:07:19;3.70;;;2.10;;
417;SDS011;49;48.530;9.200;2023-03-13T06:09:46;4.60;;;2.50;;
417;SDS011;49;48.530;9.200;2023-03-13T06:12:13;3.00;;;2.10;;
417;SDS011;49;48.530;9.200;2023-03-13T06:14:39;2.43;;;2.13;;
417;SDS011;49;48.530;9.200;2023-03-13T06:17:08;3.40;;;2.33;;
417;SDS011;49;48.530;9.200;2023-03-13T06:19:34;2.93;;;2.23;;
417;SDS011;49;48.530;9.200;2023-03-13T06:22:03;5.70;;;2.20;;
417;SDS011;49;48.530;9.200;2023-03-13T06:24:30;3.50;;;2.33;;
417;SDS011;49;48.530;9.200;2023-03-13T06:26:57;4.27;;;2.47;;
417;SDS011;49;48.530;9.200;2023-03-13T06:29:24;2.93;;;2.17;;
417;SDS011;49;48.530;9.200;2023-03-13T06:31:51;3.73;;;2.53;;
417;SDS011;49;48.530;9.200;2023-03-13T06:34:18;3.50;;;2.27;;
417;SDS011;49;48.530;9.200;2023-03-13T06:36:45;5.40;;;2.40;;
417;SDS011;49;48.530;9.200;2023-03-13T06:39:14;4.03;;;2.43;;
417;SDS011;49;48.530;9.200;2023-03-13T06:41:41;3.57;;;2.30;;
417;SDS011;49;48.530;9.200;2023-03-13T06:44:08;3.57;;;2.20;;
417;SDS011;49;48.530;9.200;2023-03-13T06:46:35;3.67;;;2.40;;
417;SDS011;49;48.530;9.200;2023-03-13T06:49:02;3.83;;;2.43;;
417;SDS011;49;48.530;9.200;2023-03-13T06:51:30;5.17;;;2.43;;
417;SDS011;49;48.530;9.200;2023-03-13T06:53:57;3.50;;;2.20;;
417;SDS011;49;48.530;9.200;2023-03-13T06:56:26;3.47;;;2.60;;
417;SDS011;49;48.530;9.200;2023-03-13T06:58:53;4.37;;;2.30;;
417;SDS011;49;48.530;9.200;2023-03-13T07:01:20;3.00;;;2.03;;
417;SDS011;49;48.530;9.200;2023-03-13T07:03:47;3.70;;;2.10;;
417;SDS011;49;48.530;9.200;2023-03-13T07:06:15;3.77;;;2.30;;
417;SDS011;49;48.530;9.200;2023-03-13T07:08:42;3.50;;;2.40;;
417;SDS011;49;48.530;9.200;2023-03-13T07:11:10;4.30;;;2.67;;
417;SDS011;49;48.530;9.200;2023-03-13T07:13:47;3.03;;;2.20;;
417;SDS011;49;48.530;9.200;2023-03-13T07:16:14;3.83;;;2.33;;
417;SDS011;49;48.530;9.200;2023-03-13T07:18:42;4.47;;;2.43;;
417;SDS011;49;48.530;9.200;2023-03-13T07:21:09;6.00;;;2.30;;
417;SDS011;49;48.530;9.200;2023-03-13T07:23:37;2.83;;;2.10;;
417;SDS011;49;48.530;9.200;2023-03-13T07:26:05;3.03;;;2.63;;
417;SDS011;49;48.530;9.200;2023-03-13T07:28:35;4.73;;;2.63;;
417;SDS011;49;48.530;9.200;2023-03-13T07:31:07;2.30;;;2.07;;
417;SDS011;49;48.530;9.200;2023-03-13T07:33:35;5.17;;;2.20;;
417;SDS011;49;48.530;9.200;2023-03-13T07:36:03;5.10;;;2.20;;
417;SDS011;49;48.530;9.200;2023-03-13T07:38:31;2.13;;;2.00;;
417;SDS011;49;48.530;9.200;2023-03-13T07:40:58;4.23;;;2.27;;
417;SDS011;49;48.530;9.200;2023-03-13T07:43:25;2.50;;;2.10;;
417;SDS011;49;48.530;9.200;2023-03-13T07:45:53;8.83;;;2.13;;
417;SDS011;49;48.530;9.200;2023-03-13T07:48:24;3.97;;;2.33;;
417;SDS011;49;48.530;9.200;2023-03-13T07:50:53;4.17;;;2.20;;
417;SDS011;49;48.530;9.200;2023-03-13T07:53:21;14.03;;;2.37;;
417;SDS011;49;48.530;9.200;2023-03-13T07:55:52;2.63;;;2.27;;
417;SDS011;49;48.530;9.200;2023-03-13T07:58:20;5.30;;;3.00;;
417;SDS011;49;48.530;9.200;2023-03-13T08:00:48;4.50;;;2.07;;
417;SDS011;49;48.530;9.200;2023-03-13T08:03:15;4.57;;;2.53;;
417;SDS011;49;48.530;9.200;2023-03-13T08:05:43;5.27;;;2.37;;
417;SDS011;49;48.530;9.200;2023-03-13T08:08:10;5.40;;;2.30;;
417;SDS011;49;48.530;9.200;2023-03-13T08:10:37;5.90;;;2.07;;
417;SDS011;49;48.530;9.200;2023-03-13T08:13:05;3.20;;;2.07;;
417;SDS011;49;48.530;9.200;2023-03-13T08:15:35;2.20;;;1.77;;
417;SDS011;49;48.530;9.200;2023-03-13T08:18:03;2.40;;;2.00;;
417;SDS011;49;48.530;9.200;2023-03-13T08:20:33;6.73;;;2.50;;
417;SDS011;49;48.530;9.200;2023-03-13T08:23:06;1.90;;;1.90;;
417;SDS011;49;48.530;9.200;2023-03-13T08:25:36;3.90;;;2.40;;
417;SDS011;49;48.530;9.200;2023-03-13T08:28:09;4.00;;;2.10;;
417;SDS011;49;48.530;9.200;2023-03-13T08:30:42;5.20;;;2.30;;
417;SDS011;49;48.530;9.200;2023-03-13T08:33:17;3.30;;;2.13;;
417;SDS011;49;48.530;9.200;2023-03-13T08:35:49;3.00;;;2.23;;
417;SDS011;49;48.530;9.200;2023-03-13T08:38:28;4.87;;;2.10;;
417;SDS011;49;48.530;9.200;2023-03-13T08:41:00;6.13;;;2.10;;
417;SDS011;49;48.530;9.200;2023-03-13T08:43:27;4.77;;;2.20;;
417;SDS011;49;48.530;9.200;2023-03-13T08:46:00;3.10;;;2.37;;
417;SDS011;49;48.530;9.200;2023-03-13T08:48:30;3.50;;;1.90;;
417;SDS011;49;48.530;9.200;2023-03-13T08:51:03;3.73;;;2.30;;
417;SDS011;49;48.530;9.200;2023-03-13T08:53:52;7.03;;;2.40;;
417;SDS011;49;48.530;9.200;2023-03-13T08:56:24;2.77;;;2.20;;
417;SDS011;49;48.530;9.200;2023-03-13T08:58:57;4.93;;;2.10;;
417;SDS011;49;48.530;9.200;2023-03-13T09:01:28;5.50;;;1.83;;
417;SDS011;49;48.530;9.200;2023-03-13T09:03:57;4.50;;;2.30;;
417;SDS011;49;48.530;9.200;2023-03-13T09:06:27;3.40;;;2.00;;
417;SDS011;49;48.530;9.200;2023-03-13T09:09:03;2.33;;;1.80;;
417;SDS011;49;48.530;9.200;2023-03-13T09:11:36;3.43;;;2.10;;
417;SDS011;49;48.530;9.200;2023-03-13T09:14:06;3.07;;;2.60;;
417;SDS011;49;48.530;9.200;2023-03-13T09:16:40;4.40;;;2.60;;
417;SDS011;49;48.530;9.200;2023-03-13T09:19:16;3.17;;;2.27;;
417;SDS011;49;48.530;9.200;2023-03-13T09:21:47;3.37;;;2.37;;
417;SDS011;49;48.530;9.200;2023-03-13T09:24:20;4.00;;;2.93;;
417;SDS011;49;48.530;9.200;2023-03-13T09:26:50;4.53;;;3.10;;
417;SDS011;49;48.530;9.200;2023-03-13T09:29:20;4.23;;;3.20;;
417;SDS011;49;48.530;9.200;2023-03-13T09:31:49;4.77;;;2.23;;
417;SDS011;49;48.530;9.200;2023-03-13T09:34:17;3.20;;;2.17;;
417;SDS011;49;48.530;9.200;2023-03-13T09:36:46;5.33;;;2.33;;
417;SDS011;49;48.530;9.200;2023-03-13T09:39:16;6.33;;;2.67;;
417;SDS011;49;48.530;9.200;2023-03-13T09:41:49;3.57;;;2.00;;
417;SDS011;49;48.530;9.200;2023-03-13T09:44:21;3.90;;;2.20;;
417;SDS011;49;48.530;9.200;2023-03-13T09:46:57;2.97;;;1.90;;
417;SDS011;49;48.530;9.200;2023-03-13T09:49:30;4.27;;;2.20;;
417;SDS011;49;48.530;9.200;2023-03-13T09:52:06;5.20;;;2.43;;
417;SDS011;49;48.530;9.200;2023-03-13T09:54:40;5.50;;;3.13;;
417;SDS011;49;48.530;9.200;2023-03-13T09:57:14;4.67;;;2.77;;
417;SDS011;49;48.530;9.200;2023-03-13T09:59:48;7.73;;;3.20;;
417;SDS011;49;48.530;9.200;2023-03-13T10:02:24;2.63;;;2.27;;
417;SDS011;49;48.530;9.200;2023-03-13T10:04:55;5.03;;;2.40;;
417;SDS011;49;48.530;9.200;2023-03-13T10:07:30;3.87;;;2.70;;
417;SDS011;49;48.530;9.200;2023-03-13T10:09:58;6.33;;;2.97;;
417;SDS011;49;48.530;9.200;2023-03-13T10:12:31;3.70;;;2.37;;
417;SDS011;49;48.530;9.200;2023-03-13T10:15:17;6.53;;;3.70;;
417;SDS011;49;48.530;9.200;2023-03-13T10:17:55;6.37;;;2.23;;
417;SDS011;49;48.530;9.200;2023-03-13T10:20:25;6.20;;;2.50;;
417;SDS011;49;48.530;9.200;2023-03-13T10:22:55;7.33;;;2.30;;
417;SDS011;49;48.530;9.200;2023-03-13T10:25:31;4.13;;;2.40;;
417;SDS011;49;48.530;9.200;2023-03-13T10:28:03;7.27;;;2.60;;
417;SDS011;49;48.530;9.200;2023-03-13T10:30:31;3.40;;;2.37;;
417;SDS011;49;48.530;9.200;2023-03-13T10:33:04;3.73;;;2.20;;
417;SDS011;49;48.530;9.200;2023-03-13T10:36:04;4.43;;;2.70;;
417;SDS011;49;48.530;9.200;2023-03-13T10:38:44;4.70;;;2.13;;
417;SDS011;49;48.530;9.200;2023-03-13T10:41:26;4.53;;;2.27;;
417;SDS011;49;48.530;9.200;2023-03-13T10:43:58;3.67;;;2.57;;
417;SDS011;49;48.530;9.200;2023-03-13T10:46:26;5.70;;;2.20;;
417;SDS011;49;48.530;9.200;2023-03-13T10:48:55;2.50;;;2.10;;
417;SDS011;49;48.530;9.200;2023-03-13T10:51:29;6.53;;;2.70;;
417;SDS011;49;48.530;9.200;2023-03-13T10:54:03;8.97;;;2.70;;
417;SDS011;49;48.530;9.200;2023-03-13T10:56:40;6.07;;;2.83;;
417;SDS011;49;48.530;9.200;2023-03-13T10:59:18;6.37;;;2.73;;
417;SDS011;49;48.530;9.200;2023-03-13T11:01:48;6.27;;;2.50;;
417;SDS011;49;48.530;9.200;2023-03-13T11:04:20;6.50;;;3.30;;
417;SDS011;49;48.530;9.200;2023-03-13T11:06:58;10.00;;;2.80;;
417;SDS011;49;48.530;9.200;2023-03-13T11:09:30;5.40;;;2.87;;
417;SDS011;49;48.530;9.200;2023-03-13T11:12:02;10.40;;;3.87;;
417;SDS011;49;48.530;9.200;2023-03-13T11:14:37;4.83;;;2.47;;
417;SDS011;49;48.530;9.200;2023-03-13T11:17:21;8.03;;;3.47;;
417;SDS011;49;48.530;9.200;2023-03-13T11:19:59;2.30;;;2.20;;
417;SDS011;49;48.530;9.200;2023-03-13T11:22:42;5.93;;;2.83;;
417;SDS011;49;48.530;9.200;2023-03-13T11:25:33;7.03;;;2.80;;
417;SDS011;49;48.530;9.200;2023-03-13T11:28:19;4.43;;;2.57;;
417;SDS011;49;48.530;9.200;2023-03-13T11:31:10;5.23;;;2.10;;
417;SDS011;49;48.530;9.200;2023-03-13T11:33:46;3.80;;;2.50;;
417;SDS011;49;48.530;9.200;2023-03-13T11:36:27;6.33;;;3.10;;
417;SDS011;49;48.530;9.200;2023-03-13T11:39:05;3.50;;;2.27;;
417;SDS011;49;48.530;9.200;2023-03-13T11:41:51;3.23;;;2.20;;
417;SDS011;49;48.530;9.200;2023-03-13T11:44:33;4.10;;;2.43;;
417;SDS011;49;48.530;9.200;2023-03-13T11:47:24;2.23;;;2.10;;
417;SDS011;49;48.530;9.200;2023-03-13T11:50:07;3.33;;;2.33;;
417;SDS011;49;48.530;9.200;2023-03-13T11:52:57;9.80;;;2.27;;
417;SDS011;49;48.530;9.200;2023-03-13T11:55:41;3.30;;;2.50;;
417;SDS011;49;48.530;9.200;2023-03-13T11:58:22;2.87;;;2.33;;
417;SDS011;49;48.530;9.200;2023-03-13T12:01:05;2.73;;;2.10;;
417;SDS011;49;48.530;9.200;2023-03-13T12:03:43;4.27;;;2.70;;
417;SDS011;49;48.530;9.200;2023-03-13T12:06:25;3.80;;;2.40;;
417;SDS011;49;48.530;9.200;2023-03-13T12:08:59;4.80;;;2.30;;
417;SDS011;49;48.530;9.200;2023-03-13T12:11:39;3.67;;;1.97;;
417;SDS011;49;48.530;9.200;2023-03-13T12:14:14;4.17;;;2.57;;
417;SDS011;49;48.530;9.200;2023-03-13T12:16:48;4.70;;;2.23;;
417;SDS011;49;48.530;9.200;2023-03-13T12:19:25;5.00;;;2.23;;
417;SDS011;49;48.530;9.200;2023-03-13T12:21:56;9.10;;;2.53;;
417;SDS011;49;48.530;9.200;2023-03-13T12:24:32;4.50;;;2.73;;
417;SDS011;49;48.530;9.200;2023-03-13T12:27:09;3.00;;;2.03;;
417;SDS011;49;48.530;9.200;2023-03-13T12:29:43;7.43;;;2.30;;
417;SDS011;49;48.530;9.200;2023-03-13T12:32:15;7.30;;;2.50;;
417;SDS011;49;48.530;9.200;2023-03-13T12:34:52;4.33;;;2.23;;
417;SDS011;49;48.530;9.200;2023-03-13T12:37:38;8.00;;;2.20;;
417;SDS011;49;48.530;9.200;2023-03-13T12:40:11;6.33;;;2.63;;
417;SDS011;49;48.530;9.200;2023-03-13T12:42:51;7.70;;;2.40;;
417;SDS011;49;48.530;9.200;2023-03-13T12:45:25;6.73;;;2.37;;
417;SDS011;49;48.530;9.200;2023-03-13T12:51:00;5.10;;;2.30;;
417;SDS011;49;48.530;9.200;2023-03-13T12:56:59;9.70;;;2.70;;
417;SDS011;49;48.530;9.200;2023-03-13T12:59:36;5.77;;;2.30;;
417;SDS011;49;48.530;9.200;2023-03-13T13:02:12;10.93;;;2.70;;
417;SDS011;49;48.530;9.200;2023-03-13T13:04:44;10.90;;;2.67;;
417;SDS011;49;48.530;9.200;2023-03-13T13:07:26;14.50;;;2.67;;
417;SDS011;49;48.530;9.200;2023-03-13T13:10:03;6.07;;;2.60;;
417;SDS011;49;48.530;9.200;2023-03-13T13:12:46;4.60;;;2.30;;
417;SDS011;49;48.530;9.200;2023-03-13T13:15:33;3.87;;;2.60;;
417;SDS011;49;48.530;9.200;2023-03-13T13:18:02;5.73;;;2.63;;
417;SDS011;49;48.530;9.200;2023-03-13T13:20:43;5.67;;;2.10;;
417;SDS011;49;48.530;9.200;2023-03-13T13:32:37;6.63;;;2.33;;
417;SDS011;49;48.530;9.200;2023-03-13T13:41:01;6.00;;;2.20;;
417;SDS011;49;48.530;9.200;2023-03-13T13:43:30;7.07;;;2.20;;
417;SDS011;49;48.530;9.200;2023-03-13T13:46:00;11.43;;;2.87;;
417;SDS011;49;48.530;9.200;2023-03-13T13:48:33;6.97;;;2.20;;
417;SDS011;49;48.530;9.200;2023-03-13T13:51:18;8.17;;;2.30;;
417;SDS011;49;48.530;9.200;2023-03-13T13:53:50;6.63;;;2.30;;
417;SDS011;49;48.530;9.200;2023-03-13T13:56:36;4.33;;;2.10;;
417;SDS011;49;48.530;9.200;2023-03-13T13:59:20;11.77;;;2.40;;
417;SDS011;49;48.530;9.200;2023-03-13T14:02:11;5.13;;;2.20;;
417;SDS011;49;48.530;9.200;2023-03-13T14:04:47;3.60;;;2.77;;
417;SDS011;49;48.530;9.200;2023-03-13T14:07:22;14.53;;;3.60;;
417;SDS011;49;48.530;9.200;2023-03-13T14:10:05;6.20;;;2.10;;
417;SDS011;49;48.530;9.200;2023-03-13T14:12:46;3.77;;;2.17;;
417;SDS011;49;48.530;9.200;2023-03-13T14:15:18;9.90;;;2.60;;
417;SDS011;49;48.530;9.200;2023-03-13T14:17:49;2.90;;;2.30;;
417;SDS011;49;48.530;9.200;2023-03-13T14:20:32;12.47;;;2.23;;
417;SDS011;49;48.530;9.200;2023-03-13T14:23:04;6.93;;;2.30;;
417;SDS011;49;48.530;9.200;2023-03-13T14:25:40;7.53;;;2.70;;
417;SDS011;49;48.530;9.200;2023-03-13T14:28:20;3.80;;;2.20;;
417;SDS011;49;48.530;9.200;2023-03-13T14:30:50;4.77;;;2.00;;
417;SDS011;49;48.530;9.200;2023-03-13T14:33:18;6.23;;;2.37;;
417;SDS011;49;48.530;9.200;2023-03-13T14:35:47;5.10;;;2.17;;
417;SDS011;49;48.530;9.200;2023-03-13T14:38:25;3.50;;;2.50;;
417;SDS011;49;48.530;9.200;2023-03-13T14:40:55;14.50;;;2.30;;
417;SDS011;49;48.530;9.200;2023-03-13T14:43:27;4.10;;;2.43;;
417;SDS011;49;48.530;9.200;2023-03-13T14:45:58;3.40;;;2.50;;
417;SDS011;49;48.530;9.200;2023-03-13T14:48:27;3.40;;;2.30;;
417;SDS011;49;48.530;9.200;2023-03-13T14:50:59;5.40;;;2.23;;
417;SDS011;49;48.530;9.200;2023-03-13T14:53:29;8.70;;;2.77;;
417;SDS011;49;48.530;9.200;2023-03-13T14:56:09;7.40;;;2.20;;
417;SDS011;49;48.530;9.200;2023-03-13T14:58:44;9.33;;;2.87;;
417;SDS011;49;48.530;9.200;2023-03-13T15:01:25;5.30;;;2.53;;
417;SDS011;49;48.530;9.200;2023-03-13T15:04:02;5.83;;;2.07;;
417;SDS011;49;48.530;9.200;2023-03-13T15:06:30;4.00;;;2.47;;
417;SDS011;49;48.530;9.200;2023-03-13T15:09:16;8.00;;;2.27;;
417;SDS011;49;48.530;9.200;2023-03-13T15:11:52;5.27;;;2.30;;
417;SDS011;49;48.530;9.200;2023-03-13T15:14:40;5.53;;;2.40;;
417;SDS011;49;48.530;9.200;2023-03-13T15:17:16;6.37;;;2.60;;
417;SDS011;49;48.530;9.200;2023-03-13T15:19:49;11.60;;;2.63;;
417;SDS011;49;48.530;9.200;2023-03-13T15:22:19;5.93;;;2.60;;
417;SDS011;49;48.530;9.200;2023-03-13T15:24:51;4.90;;;2.10;;
417;SDS011;49;48.530;9.200;2023-03-13T15:27:19;5.07;;;2.00;;
417;SDS011;49;48.530;9.200;2023-03-13T15:29:49;6.30;;;2.60;;
417;SDS011;49;48.530;9.200;2023-03-13T15:32:21;14.17;;;2.90;;
417;SDS011;49;48.530;9.200;2023-03-13T15:34:56;3.00;;;2.00;;
417;SDS011;49;48.530;9.200;2023-03-13T15:37:26;16.60;;;2.50;;
417;SDS011;49;48.530;9.200;2023-03-13T15:39:55;5.20;;;2.10;;
417;SDS011;49;48.530;9.200;2023-03-13T15:42:22;3.43;;;2.10;;
417;SDS011;49;48.530;9.200;2023-03-13T15:44:54;8.57;;;2.43;;
417;SDS011;49;48.530;9.200;2023-03-13T15:47:22;4.67;;;2.10;;
417;SDS011;49;48.530;9.200;2023-03-13T15:49:51;11.63;;;2.60;;
417;SDS011;49;48.530;9.200;2023-03-13T15:52:20;6.20;;;2.00;;
417;SDS011;49;48.530;9.200;2023-03-13T15:54:48;7.23;;;2.73;;
417;SDS011;49;48.530;9.200;2023-03-13T15:57:17;2.30;;;2.10;;
417;SDS011;49;48.530;9.200;2023-03-13T15:59:47;6.13;;;2.10;;
417;SDS011;49;48.530;9.200;2023-03-13T16:02:16;6.10;;;2.23;;
417;SDS011;49;48.530;9.200;2023-03-13T16:04:47;12.57;;;2.47;;
417;SDS011;49;48.530;9.200;2023-03-13T16:07:17;3.50;;;1.80;;
417;SDS011;49;48.530;9.200;2023-03-13T16:09:48;5.67;;;2.40;;
417;SDS011;49;48.530;9.200;2023-03-13T16:12:15;6.43;;;2.33;;
417;SDS011;49;48.530;9.200;2023-03-13T16:14:48;6.93;;;2.47;;
417;SDS011;49;48.530;9.200;2023-03-13T16:17:20;4.93;;;2.20;;
417;SDS011;49;48.530;9.200;2023-03-13T16:19:49;2.90;;;2.17;;
417;SDS011;49;48.530;9.200;2023-03-13T16:22:24;3.33;;;2.10;;
417;SDS011;49;48.530;9.200;2023-03-13T16:24:51;3.80;;;2.13;;
417;SDS011;49;48.530;9.200;2023-03-13T16:27:22;2.63;;;2.20;;
417;SDS011;49;48.530;9.200;2023-03-13T16:30:14;4.73;;;2.30;;
417;SDS011;49;48.530;9.200;2023-03-13T16:32:48;3.90;;;1.93;;
417;SDS011;49;48.530;9.200;2023-03-13T16:35:20;2.70;;;2.03;;
417;SDS011;49;48.530;9.200;2023-03-13T16:37:50;10.57;;;2.10;;
417;SDS011;49;48.530;9.200;2023-03-13T16:40:36;6.50;;;1.83;;
417;SDS011;49;48.530;9.200;2023-03-13T16:43:05;6.80;;;2.53;;
417;SDS011;49;48.530;9.200;2023-03-13T16:45:40;6.00;;;2.67;;
417;SDS011;49;48.530;9.200;2023-03-13T16:48:30;3.80;;;2.27;;